LEBBLECO [WT0000]

Details From LEBB - Bilbao
To LECO - A Coruna
Flight Number WT0000
Tags Novice Commercial Decoded
Created
Modified
Stats Distance 238 nm / 441 km
Max Altitude 0 ft / 0 m
Waypoints 2
Social Downloads 12
Likes 0
Share VATSIM

Download

Looking for another format? Having issues loading an existing format? Contact us
Advertisement - Login to hide

Notes

Decoded

Route

LEBB LECO

ID Type Via Altitude Latitude Longitude Leg Dist Tot Dist Heading (true) Name
O LEBB APT - 0 ft / 0 m 43.30335˚ -2.93703˚ - 0 nm - -
O LECO APT - 0 ft / 0 m 43.29478˚ -8.38323˚ 238 nm 238 nm 272° / 268° -

Altitude Profile

Advertisement - Login to hide

Weather


0- 5 10 15 20 25 30 35+ Temperature / ° C

Clouds and Precipitation
Forecast for 2017-12-15 06:00 UTC. Updated an hour ago

Ground ~20,000 ft ~40,000 ft Winds

LEBB

Details ICAO LEBB (BIO)
Name Bilbao
Region Spain
Timezone Europe/Madrid (UTC+1.0)
Stats Elevation 137 ft / 42 m (AMSL)
Location 43.301692° -2.917664°
Runways 2
Magnetic Variation 0.629° W

METAR

LEBB 150600Z 00000KT 9000 RA BKN035 BKN048 08/06 Q1011 TEMPO 4000 RA

Decode

TAF

TAF LEBB 150500Z 1506/1606 26009KT 9999 SCT025 BKN050 TX12/1514Z TN07/1506Z TEMPO 1506/1606 31015G25KT 3000 RA BKN014 PROB40 TEMPO 1506/1521 3000 SHRA SCT030TCU PROB30 TEMPO 1506/1521 31018G32KT 1500 TSRA BKN010 SCT030CB

Decode

Departure Runways

ID Width Length Bearing (true) Bearing (mag) Surface Threshold Offset Overrun Length
10 148 ft / 45 m 6,569 ft / 2,002 m 96.66° 97.29° Asphalt 20 ft / 6 m 184 ft / 56 m
12 148 ft / 45 m 8,539 ft / 2,603 m 116.73° 117.36° Asphalt 20 ft / 6 m 197 ft / 60 m
28 148 ft / 45 m 6,569 ft / 2,002 m 276.68° 277.31° Asphalt 23 ft / 7 m 0 ft / 0 m
30 148 ft / 45 m 8,539 ft / 2,603 m 296.75° 297.38° Asphalt 1,509 ft / 460 m 171 ft / 52 m

LECO

Details ICAO LECO (LCG)
Name A Coruna
Region Spain
Timezone Europe/Madrid (UTC+1.0)
Stats Elevation 323 ft / 98 m (AMSL)
Location 43.302264° -8.377086°
Runways 1
Magnetic Variation 2.391° W

METAR

LECO 150600Z 35007KT 320V040 9999 FEW020 09/07 Q1015 NOSIG

Decode

TAF

TAF LECO 150200Z 1503/1603 28007KT 8000 SCT010 BKN030 TX13/1514Z TN07/1506Z BECMG 1503/1505 34010KT PROB30 TEMPO 1503/1508 4000 RA BKN010

Decode

Destination Runways

ID Width Length Bearing (true) Bearing (mag) Surface Threshold Offset Overrun Length
04 148 ft / 45 m 6,371 ft / 1,942 m 30.94° 33.33° Asphalt 0 ft / 0 m 194 ft / 59 m
22 148 ft / 45 m 6,371 ft / 1,942 m 210.94° 213.33° Asphalt 0 ft / 0 m 203 ft / 62 m

Approach Navaids

Runway Type Ident Frequency Range Bearing (true) Bearing (mag) Slope Elevation
22 Localiser LCO 109.90 MHz 18 nm / 33 km 210.89° 213.28° - 329 ft / 100 m (AMSL)
22 Glidescope LCO 109.90 MHz 10 nm / 19 km 210.94° 213.33° 3.00° 323 ft / 98 m (AMSL)
22 DME LCO 109.90 MHz 18 nm / 33 km - - - 293 ft / 89 m (AMSL)

Popular Alternatives